sensor_id;sensor_type;location;lat;lon;timestamp;P1;durP1;ratioP1;P2;durP2;ratioP2
8488;SDS011;4281;45.772;12.852;2023-06-22T00:00:54;20.83;;;18.97;;
8488;SDS011;4281;45.772;12.852;2023-06-22T00:03:22;20.27;;;18.57;;
8488;SDS011;4281;45.772;12.852;2023-06-22T00:05:51;20.63;;;18.87;;
8488;SDS011;4281;45.772;12.852;2023-06-22T00:08:20;19.77;;;18.17;;
8488;SDS011;4281;45.772;12.852;2023-06-22T00:10:47;19.13;;;17.50;;
8488;SDS011;4281;45.772;12.852;2023-06-22T00:13:17;17.97;;;16.53;;
8488;SDS011;4281;45.772;12.852;2023-06-22T00:15:45;17.93;;;16.53;;
8488;SDS011;4281;45.772;12.852;2023-06-22T00:18:13;17.20;;;15.80;;
8488;SDS011;4281;45.772;12.852;2023-06-22T00:20:42;18.27;;;16.77;;
8488;SDS011;4281;45.772;12.852;2023-06-22T00:23:12;18.20;;;16.70;;
8488;SDS011;4281;45.772;12.852;2023-06-22T00:25:40;18.90;;;17.40;;
8488;SDS011;4281;45.772;12.852;2023-06-22T00:28:08;18.87;;;17.37;;
8488;SDS011;4281;45.772;12.852;2023-06-22T00:30:37;18.73;;;17.13;;
8488;SDS011;4281;45.772;12.852;2023-06-22T00:33:05;18.23;;;16.73;;
8488;SDS011;4281;45.772;12.852;2023-06-22T00:35:34;18.33;;;16.93;;
8488;SDS011;4281;45.772;12.852;2023-06-22T00:38:02;18.40;;;16.83;;
8488;SDS011;4281;45.772;12.852;2023-06-22T00:40:31;19.30;;;17.80;;
8488;SDS011;4281;45.772;12.852;2023-06-22T00:43:00;20.57;;;18.77;;
8488;SDS011;4281;45.772;12.852;2023-06-22T00:45:28;20.33;;;18.53;;
8488;SDS011;4281;45.772;12.852;2023-06-22T00:47:57;18.70;;;17.27;;
8488;SDS011;4281;45.772;12.852;2023-06-22T00:50:26;19.33;;;17.73;;
8488;SDS011;4281;45.772;12.852;2023-06-22T00:52:56;20.10;;;18.40;;
8488;SDS011;4281;45.772;12.852;2023-06-22T00:55:25;21.00;;;19.20;;
8488;SDS011;4281;45.772;12.852;2023-06-22T00:57:53;21.23;;;19.63;;
8488;SDS011;4281;45.772;12.852;2023-06-22T01:00:22;21.40;;;19.70;;
8488;SDS011;4281;45.772;12.852;2023-06-22T01:02:52;23.87;;;21.97;;
8488;SDS011;4281;45.772;12.852;2023-06-22T01:05:22;23.40;;;21.37;;
8488;SDS011;4281;45.772;12.852;2023-06-22T01:08:02;24.13;;;22.13;;
8488;SDS011;4281;45.772;12.852;2023-06-22T01:10:35;24.57;;;22.57;;
8488;SDS011;4281;45.772;12.852;2023-06-22T01:13:07;23.27;;;21.30;;
8488;SDS011;4281;45.772;12.852;2023-06-22T01:15:42;24.60;;;22.43;;
8488;SDS011;4281;45.772;12.852;2023-06-22T01:18:12;23.97;;;21.97;;
8488;SDS011;4281;45.772;12.852;2023-06-22T01:20:42;23.50;;;21.43;;
8488;SDS011;4281;45.772;12.852;2023-06-22T01:23:11;23.03;;;21.03;;
8488;SDS011;4281;45.772;12.852;2023-06-22T01:25:50;21.80;;;20.10;;
8488;SDS011;4281;45.772;12.852;2023-06-22T01:28:34;23.73;;;21.90;;
8488;SDS011;4281;45.772;12.852;2023-06-22T01:31:08;23.37;;;21.57;;
8488;SDS011;4281;45.772;12.852;2023-06-22T01:33:39;24.60;;;22.47;;
8488;SDS011;4281;45.772;12.852;2023-06-22T01:36:09;27.33;;;24.90;;
8488;SDS011;4281;45.772;12.852;2023-06-22T01:38:37;25.93;;;23.77;;
8488;SDS011;4281;45.772;12.852;2023-06-22T01:41:05;26.23;;;24.03;;
8488;SDS011;4281;45.772;12.852;2023-06-22T01:43:35;27.83;;;25.53;;
8488;SDS011;4281;45.772;12.852;2023-06-22T01:46:03;28.43;;;25.87;;
8488;SDS011;4281;45.772;12.852;2023-06-22T01:48:32;27.97;;;25.77;;
8488;SDS011;4281;45.772;12.852;2023-06-22T01:51:00;29.17;;;26.87;;
8488;SDS011;4281;45.772;12.852;2023-06-22T01:53:28;31.57;;;29.00;;
8488;SDS011;4281;45.772;12.852;2023-06-22T01:55:56;31.03;;;28.53;;
8488;SDS011;4281;45.772;12.852;2023-06-22T01:58:25;32.97;;;30.03;;
8488;SDS011;4281;45.772;12.852;2023-06-22T02:00:57;32.93;;;30.23;;
8488;SDS011;4281;45.772;12.852;2023-06-22T02:03:30;33.77;;;30.67;;
8488;SDS011;4281;45.772;12.852;2023-06-22T02:06:01;30.47;;;27.93;;
8488;SDS011;4281;45.772;12.852;2023-06-22T02:08:32;30.67;;;28.07;;
8488;SDS011;4281;45.772;12.852;2023-06-22T02:11:03;31.17;;;28.67;;
8488;SDS011;4281;45.772;12.852;2023-06-22T02:13:34;30.40;;;27.60;;
8488;SDS011;4281;45.772;12.852;2023-06-22T02:16:03;31.67;;;28.97;;
8488;SDS011;4281;45.772;12.852;2023-06-22T02:18:31;31.93;;;29.33;;
8488;SDS011;4281;45.772;12.852;2023-06-22T02:21:02;32.53;;;29.83;;
8488;SDS011;4281;45.772;12.852;2023-06-22T02:23:30;32.37;;;29.60;;
8488;SDS011;4281;45.772;12.852;2023-06-22T02:25:59;32.70;;;29.97;;
8488;SDS011;4281;45.772;12.852;2023-06-22T02:28:27;32.90;;;30.07;;
8488;SDS011;4281;45.772;12.852;2023-06-22T02:30:55;34.43;;;31.53;;
8488;SDS011;4281;45.772;12.852;2023-06-22T02:33:24;32.87;;;30.17;;
8488;SDS011;4281;45.772;12.852;2023-06-22T02:35:52;35.67;;;32.63;;
8488;SDS011;4281;45.772;12.852;2023-06-22T02:38:20;34.50;;;31.63;;
8488;SDS011;4281;45.772;12.852;2023-06-22T02:40:50;33.17;;;30.43;;
8488;SDS011;4281;45.772;12.852;2023-06-22T02:43:18;32.50;;;29.80;;
8488;SDS011;4281;45.772;12.852;2023-06-22T02:45:46;32.23;;;29.23;;
8488;SDS011;4281;45.772;12.852;2023-06-22T02:48:14;33.20;;;30.40;;
8488;SDS011;4281;45.772;12.852;2023-06-22T02:50:44;33.30;;;30.60;;
8488;SDS011;4281;45.772;12.852;2023-06-22T02:53:12;34.37;;;31.53;;
8488;SDS011;4281;45.772;12.852;2023-06-22T02:55:39;33.47;;;30.63;;
8488;SDS011;4281;45.772;12.852;2023-06-22T02:58:07;32.37;;;29.67;;
8488;SDS011;4281;45.772;12.852;2023-06-22T03:00:35;33.50;;;30.60;;
8488;SDS011;4281;45.772;12.852;2023-06-22T03:03:05;32.63;;;29.90;;
8488;SDS011;4281;45.772;12.852;2023-06-22T03:05:33;30.60;;;28.07;;
8488;SDS011;4281;45.772;12.852;2023-06-22T03:08:03;31.33;;;28.73;;
8488;SDS011;4281;45.772;12.852;2023-06-22T03:10:31;29.77;;;27.30;;
8488;SDS011;4281;45.772;12.852;2023-06-22T03:12:59;31.03;;;28.53;;
8488;SDS011;4281;45.772;12.852;2023-06-22T03:15:27;31.03;;;28.43;;
8488;SDS011;4281;45.772;12.852;2023-06-22T03:17:55;32.13;;;29.33;;
8488;SDS011;4281;45.772;12.852;2023-06-22T03:20:24;32.43;;;29.70;;
8488;SDS011;4281;45.772;12.852;2023-06-22T03:22:54;32.10;;;29.47;;
8488;SDS011;4281;45.772;12.852;2023-06-22T03:25:23;30.73;;;28.13;;
8488;SDS011;4281;45.772;12.852;2023-06-22T03:27:51;31.80;;;29.03;;
8488;SDS011;4281;45.772;12.852;2023-06-22T03:30:19;30.60;;;28.03;;
8488;SDS011;4281;45.772;12.852;2023-06-22T03:32:46;30.27;;;27.77;;
8488;SDS011;4281;45.772;12.852;2023-06-22T03:35:15;31.50;;;29.00;;
8488;SDS011;4281;45.772;12.852;2023-06-22T03:37:43;29.77;;;27.27;;
8488;SDS011;4281;45.772;12.852;2023-06-22T03:40:11;29.87;;;27.43;;
8488;SDS011;4281;45.772;12.852;2023-06-22T03:42:41;29.23;;;26.90;;
8488;SDS011;4281;45.772;12.852;2023-06-22T03:45:09;28.57;;;26.20;;
8488;SDS011;4281;45.772;12.852;2023-06-22T03:47:37;29.17;;;26.70;;
8488;SDS011;4281;45.772;12.852;2023-06-22T03:50:06;29.60;;;27.10;;
8488;SDS011;4281;45.772;12.852;2023-06-22T03:52:34;30.50;;;27.97;;
8488;SDS011;4281;45.772;12.852;2023-06-22T03:55:02;29.43;;;27.13;;
8488;SDS011;4281;45.772;12.852;2023-06-22T03:57:30;29.93;;;27.53;;
8488;SDS011;4281;45.772;12.852;2023-06-22T04:00:00;31.23;;;28.57;;
8488;SDS011;4281;45.772;12.852;2023-06-22T04:02:29;29.90;;;27.60;;
8488;SDS011;4281;45.772;12.852;2023-06-22T04:04:57;29.27;;;26.83;;
8488;SDS011;4281;45.772;12.852;2023-06-22T04:07:29;28.03;;;25.70;;
8488;SDS011;4281;45.772;12.852;2023-06-22T04:09:57;28.47;;;26.07;;
8488;SDS011;4281;45.772;12.852;2023-06-22T04:12:25;26.40;;;24.17;;
8488;SDS011;4281;45.772;12.852;2023-06-22T04:14:53;24.57;;;22.57;;
8488;SDS011;4281;45.772;12.852;2023-06-22T04:17:22;24.33;;;22.23;;
8488;SDS011;4281;45.772;12.852;2023-06-22T04:19:51;24.00;;;22.10;;
8488;SDS011;4281;45.772;12.852;2023-06-22T04:22:19;23.17;;;21.33;;
8488;SDS011;4281;45.772;12.852;2023-06-22T04:24:47;24.10;;;22.20;;
8488;SDS011;4281;45.772;12.852;2023-06-22T04:27:19;24.07;;;22.00;;
8488;SDS011;4281;45.772;12.852;2023-06-22T04:29:49;23.23;;;21.43;;
8488;SDS011;4281;45.772;12.852;2023-06-22T04:32:17;22.23;;;20.53;;
8488;SDS011;4281;45.772;12.852;2023-06-22T04:34:47;22.97;;;21.17;;
8488;SDS011;4281;45.772;12.852;2023-06-22T04:37:15;20.97;;;19.37;;
8488;SDS011;4281;45.772;12.852;2023-06-22T04:39:42;20.77;;;19.07;;
8488;SDS011;4281;45.772;12.852;2023-06-22T04:42:11;20.60;;;18.97;;
8488;SDS011;4281;45.772;12.852;2023-06-22T04:44:40;19.53;;;17.93;;
8488;SDS011;4281;45.772;12.852;2023-06-22T04:47:08;20.50;;;18.90;;
8488;SDS011;4281;45.772;12.852;2023-06-22T04:49:36;19.60;;;18.00;;
8488;SDS011;4281;45.772;12.852;2023-06-22T04:52:06;18.53;;;17.13;;
8488;SDS011;4281;45.772;12.852;2023-06-22T04:54:35;17.47;;;16.10;;
8488;SDS011;4281;45.772;12.852;2023-06-22T04:57:05;19.07;;;17.57;;
8488;SDS011;4281;45.772;12.852;2023-06-22T04:59:37;17.87;;;16.37;;
8488;SDS011;4281;45.772;12.852;2023-06-22T05:02:05;17.60;;;16.20;;
8488;SDS011;4281;45.772;12.852;2023-06-22T05:04:34;17.63;;;16.23;;
8488;SDS011;4281;45.772;12.852;2023-06-22T05:07:07;17.13;;;15.73;;
8488;SDS011;4281;45.772;12.852;2023-06-22T05:09:35;16.53;;;15.20;;
8488;SDS011;4281;45.772;12.852;2023-06-22T05:12:03;16.67;;;15.17;;
8488;SDS011;4281;45.772;12.852;2023-06-22T05:14:35;16.13;;;14.60;;
8488;SDS011;4281;45.772;12.852;2023-06-22T05:17:03;15.37;;;14.13;;
8488;SDS011;4281;45.772;12.852;2023-06-22T05:19:41;15.27;;;14.07;;
8488;SDS011;4281;45.772;12.852;2023-06-22T05:22:12;16.33;;;15.03;;
8488;SDS011;4281;45.772;12.852;2023-06-22T05:24:40;16.07;;;14.83;;
8488;SDS011;4281;45.772;12.852;2023-06-22T05:27:08;15.97;;;14.57;;
8488;SDS011;4281;45.772;12.852;2023-06-22T05:29:37;15.10;;;13.80;;
8488;SDS011;4281;45.772;12.852;2023-06-22T05:32:05;15.50;;;14.10;;
8488;SDS011;4281;45.772;12.852;2023-06-22T05:34:34;15.90;;;14.53;;
8488;SDS011;4281;45.772;12.852;2023-06-22T05:37:02;15.23;;;14.03;;
8488;SDS011;4281;45.772;12.852;2023-06-22T05:39:31;14.83;;;13.57;;
8488;SDS011;4281;45.772;12.852;2023-06-22T05:41:59;15.03;;;13.83;;
8488;SDS011;4281;45.772;12.852;2023-06-22T05:44:27;15.60;;;14.13;;
8488;SDS011;4281;45.772;12.852;2023-06-22T05:46:55;14.47;;;13.17;;
8488;SDS011;4281;45.772;12.852;2023-06-22T05:49:23;14.17;;;12.97;;
8488;SDS011;4281;45.772;12.852;2023-06-22T05:51:55;14.20;;;13.10;;
8488;SDS011;4281;45.772;12.852;2023-06-22T05:54:23;14.10;;;12.83;;
8488;SDS011;4281;45.772;12.852;2023-06-22T05:56:53;13.87;;;12.77;;
8488;SDS011;4281;45.772;12.852;2023-06-22T05:59:21;14.27;;;13.07;;
8488;SDS011;4281;45.772;12.852;2023-06-22T06:01:48;14.03;;;12.83;;
8488;SDS011;4281;45.772;12.852;2023-06-22T06:04:17;13.67;;;12.37;;
8488;SDS011;4281;45.772;12.852;2023-06-22T06:06:45;12.57;;;11.50;;
8488;SDS011;4281;45.772;12.852;2023-06-22T06:09:14;13.20;;;12.10;;
8488;SDS011;4281;45.772;12.852;2023-06-22T06:11:42;13.30;;;12.10;;
8488;SDS011;4281;45.772;12.852;2023-06-22T06:14:11;13.23;;;12.03;;
8488;SDS011;4281;45.772;12.852;2023-06-22T06:16:39;13.70;;;12.50;;
8488;SDS011;4281;45.772;12.852;2023-06-22T06:19:07;13.23;;;12.03;;
8488;SDS011;4281;45.772;12.852;2023-06-22T06:21:35;13.70;;;12.60;;
8488;SDS011;4281;45.772;12.852;2023-06-22T06:24:03;12.87;;;11.83;;
8488;SDS011;4281;45.772;12.852;2023-06-22T06:26:32;13.17;;;12.10;;
8488;SDS011;4281;45.772;12.852;2023-06-22T06:29:02;13.33;;;12.33;;
8488;SDS011;4281;45.772;12.852;2023-06-22T06:31:31;14.37;;;13.10;;
8488;SDS011;4281;45.772;12.852;2023-06-22T06:33:59;14.00;;;12.70;;
8488;SDS011;4281;45.772;12.852;2023-06-22T06:36:27;13.83;;;12.43;;
8488;SDS011;4281;45.772;12.852;2023-06-22T06:38:55;14.17;;;12.97;;
8488;SDS011;4281;45.772;12.852;2023-06-22T06:41:23;13.53;;;12.23;;
8488;SDS011;4281;45.772;12.852;2023-06-22T06:43:51;13.87;;;12.57;;
8488;SDS011;4281;45.772;12.852;2023-06-22T06:46:19;13.90;;;12.77;;
8488;SDS011;4281;45.772;12.852;2023-06-22T06:48:48;13.17;;;12.07;;
8488;SDS011;4281;45.772;12.852;2023-06-22T06:51:16;13.73;;;12.43;;
8488;SDS011;4281;45.772;12.852;2023-06-22T06:53:44;13.53;;;12.30;;
8488;SDS011;4281;45.772;12.852;2023-06-22T06:56:12;13.57;;;12.30;;
8488;SDS011;4281;45.772;12.852;2023-06-22T06:58:40;13.57;;;12.37;;
8488;SDS011;4281;45.772;12.852;2023-06-22T07:01:11;13.60;;;12.57;;
8488;SDS011;4281;45.772;12.852;2023-06-22T07:03:39;13.47;;;12.37;;
8488;SDS011;4281;45.772;12.852;2023-06-22T07:06:09;15.03;;;13.63;;
8488;SDS011;4281;45.772;12.852;2023-06-22T07:08:37;16.90;;;15.37;;
8488;SDS011;4281;45.772;12.852;2023-06-22T07:11:06;15.63;;;14.30;;
8488;SDS011;4281;45.772;12.852;2023-06-22T07:13:34;15.30;;;14.00;;
8488;SDS011;4281;45.772;12.852;2023-06-22T07:16:02;14.23;;;13.03;;
8488;SDS011;4281;45.772;12.852;2023-06-22T07:18:30;15.40;;;13.47;;
8488;SDS011;4281;45.772;12.852;2023-06-22T07:20:58;14.70;;;13.40;;
8488;SDS011;4281;45.772;12.852;2023-06-22T07:23:27;13.80;;;12.70;;
8488;SDS011;4281;45.772;12.852;2023-06-22T07:25:55;13.80;;;12.50;;
8488;SDS011;4281;45.772;12.852;2023-06-22T07:28:23;13.63;;;12.60;;
8488;SDS011;4281;45.772;12.852;2023-06-22T07:30:51;14.00;;;12.70;;
8488;SDS011;4281;45.772;12.852;2023-06-22T07:33:19;14.13;;;13.03;;
8488;SDS011;4281;45.772;12.852;2023-06-22T07:35:47;13.63;;;12.43;;
8488;SDS011;4281;45.772;12.852;2023-06-22T07:38:17;13.63;;;12.43;;
8488;SDS011;4281;45.772;12.852;2023-06-22T07:40:46;14.13;;;12.83;;
8488;SDS011;4281;45.772;12.852;2023-06-22T07:43:14;14.03;;;12.83;;
8488;SDS011;4281;45.772;12.852;2023-06-22T07:45:47;13.97;;;12.77;;
8488;SDS011;4281;45.772;12.852;2023-06-22T07:48:19;12.83;;;11.63;;
8488;SDS011;4281;45.772;12.852;2023-06-22T07:50:47;12.47;;;11.47;;
8488;SDS011;4281;45.772;12.852;2023-06-22T07:53:15;12.93;;;11.77;;
8488;SDS011;4281;45.772;12.852;2023-06-22T07:55:43;12.27;;;11.27;;
8488;SDS011;4281;45.772;12.852;2023-06-22T07:58:16;12.07;;;11.13;;
8488;SDS011;4281;45.772;12.852;2023-06-22T08:00:45;12.80;;;11.70;;
8488;SDS011;4281;45.772;12.852;2023-06-22T08:03:15;11.53;;;10.63;;
8488;SDS011;4281;45.772;12.852;2023-06-22T08:05:43;11.87;;;10.77;;
8488;SDS011;4281;45.772;12.852;2023-06-22T08:08:11;12.17;;;11.17;;
8488;SDS011;4281;45.772;12.852;2023-06-22T08:10:40;12.30;;;11.20;;
8488;SDS011;4281;45.772;12.852;2023-06-22T08:13:09;13.33;;;12.13;;
8488;SDS011;4281;45.772;12.852;2023-06-22T08:15:39;13.30;;;12.20;;
8488;SDS011;4281;45.772;12.852;2023-06-22T08:18:07;13.73;;;12.13;;
8488;SDS011;4281;45.772;12.852;2023-06-22T08:20:35;14.70;;;12.33;;
8488;SDS011;4281;45.772;12.852;2023-06-22T08:23:03;13.07;;;11.83;;
8488;SDS011;4281;45.772;12.852;2023-06-22T08:25:32;13.10;;;11.00;;
8488;SDS011;4281;45.772;12.852;2023-06-22T08:28:00;12.50;;;11.27;;
8488;SDS011;4281;45.772;12.852;2023-06-22T08:30:29;12.33;;;11.10;;
8488;SDS011;4281;45.772;12.852;2023-06-22T08:32:58;11.93;;;10.83;;
8488;SDS011;4281;45.772;12.852;2023-06-22T08:35:26;11.03;;;9.97;;
8488;SDS011;4281;45.772;12.852;2023-06-22T08:37:55;11.93;;;10.97;;
8488;SDS011;4281;45.772;12.852;2023-06-22T08:40:24;12.33;;;11.20;;
8488;SDS011;4281;45.772;12.852;2023-06-22T08:42:52;12.60;;;11.43;;
8488;SDS011;4281;45.772;12.852;2023-06-22T08:45:20;14.20;;;12.87;;
8488;SDS011;4281;45.772;12.852;2023-06-22T08:47:48;13.33;;;12.23;;
8488;SDS011;4281;45.772;12.852;2023-06-22T08:50:17;12.40;;;11.37;;
8488;SDS011;4281;45.772;12.852;2023-06-22T08:52:45;11.80;;;10.90;;
8488;SDS011;4281;45.772;12.852;2023-06-22T08:55:14;12.43;;;11.27;;
8488;SDS011;4281;45.772;12.852;2023-06-22T08:57:42;11.57;;;10.53;;
8488;SDS011;4281;45.772;12.852;2023-06-22T09:00:10;11.73;;;10.73;;
8488;SDS011;4281;45.772;12.852;2023-06-22T09:02:42;12.00;;;10.80;;
8488;SDS011;4281;45.772;12.852;2023-06-22T09:05:11;10.77;;;9.97;;
8488;SDS011;4281;45.772;12.852;2023-06-22T09:07:40;11.90;;;10.67;;
8488;SDS011;4281;45.772;12.852;2023-06-22T09:10:08;11.93;;;10.67;;
8488;SDS011;4281;45.772;12.852;2023-06-22T09:12:36;11.60;;;10.60;;
8488;SDS011;4281;45.772;12.852;2023-06-22T09:15:05;11.37;;;10.27;;
8488;SDS011;4281;45.772;12.852;2023-06-22T09:17:38;11.60;;;10.57;;
8488;SDS011;4281;45.772;12.852;2023-06-22T09:20:08;11.07;;;10.07;;
8488;SDS011;4281;45.772;12.852;2023-06-22T09:22:37;11.47;;;10.37;;
8488;SDS011;4281;45.772;12.852;2023-06-22T09:25:07;11.60;;;10.53;;
8488;SDS011;4281;45.772;12.852;2023-06-22T09:27:35;12.30;;;11.30;;
8488;SDS011;4281;45.772;12.852;2023-06-22T09:30:03;11.70;;;10.70;;
8488;SDS011;4281;45.772;12.852;2023-06-22T09:32:32;11.47;;;10.47;;
8488;SDS011;4281;45.772;12.852;2023-06-22T09:35:01;11.40;;;10.47;;
8488;SDS011;4281;45.772;12.852;2023-06-22T09:37:32;10.73;;;9.80;;
8488;SDS011;4281;45.772;12.852;2023-06-22T09:40:00;11.10;;;10.13;;
8488;SDS011;4281;45.772;12.852;2023-06-22T09:42:29;12.13;;;10.93;;
8488;SDS011;4281;45.772;12.852;2023-06-22T09:44:57;11.63;;;10.40;;
8488;SDS011;4281;45.772;12.852;2023-06-22T09:47:25;12.53;;;11.43;;
8488;SDS011;4281;45.772;12.852;2023-06-22T09:49:53;12.60;;;11.47;;
8488;SDS011;4281;45.772;12.852;2023-06-22T09:52:21;11.33;;;10.33;;
8488;SDS011;4281;45.772;12.852;2023-06-22T09:54:59;12.57;;;11.30;;
8488;SDS011;4281;45.772;12.852;2023-06-22T09:57:28;10.77;;;9.83;;
8488;SDS011;4281;45.772;12.852;2023-06-22T09:59:57;11.23;;;10.23;;
8488;SDS011;4281;45.772;12.852;2023-06-22T10:02:24;10.47;;;9.53;;
8488;SDS011;4281;45.772;12.852;2023-06-22T10:04:53;10.37;;;9.57;;
8488;SDS011;4281;45.772;12.852;2023-06-22T10:07:21;9.83;;;8.83;;
8488;SDS011;4281;45.772;12.852;2023-06-22T10:09:49;9.57;;;8.67;;
8488;SDS011;4281;45.772;12.852;2023-06-22T10:12:17;9.30;;;8.43;;
8488;SDS011;4281;45.772;12.852;2023-06-22T10:14:46;9.60;;;8.70;;
8488;SDS011;4281;45.772;12.852;2023-06-22T10:17:14;10.83;;;9.37;;
8488;SDS011;4281;45.772;12.852;2023-06-22T10:19:42;10.17;;;9.30;;
8488;SDS011;4281;45.772;12.852;2023-06-22T10:22:10;10.37;;;8.83;;
8488;SDS011;4281;45.772;12.852;2023-06-22T10:24:38;9.67;;;8.87;;
8488;SDS011;4281;45.772;12.852;2023-06-22T10:27:10;9.57;;;8.73;;
8488;SDS011;4281;45.772;12.852;2023-06-22T10:29:40;8.80;;;8.00;;
8488;SDS011;4281;45.772;12.852;2023-06-22T10:32:10;9.20;;;8.47;;
8488;SDS011;4281;45.772;12.852;2023-06-22T10:34:38;9.87;;;8.87;;
8488;SDS011;4281;45.772;12.852;2023-06-22T10:37:06;9.23;;;8.43;;
8488;SDS011;4281;45.772;12.852;2023-06-22T10:39:34;10.00;;;8.77;;
8488;SDS011;4281;45.772;12.852;2023-06-22T10:42:02;10.07;;;8.77;;
8488;SDS011;4281;45.772;12.852;2023-06-22T10:44:30;10.70;;;9.87;;
8488;SDS011;4281;45.772;12.852;2023-06-22T10:46:58;11.07;;;10.07;;
8488;SDS011;4281;45.772;12.852;2023-06-22T10:49:27;11.57;;;10.53;;
8488;SDS011;4281;45.772;12.852;2023-06-22T10:51:55;11.10;;;10.10;;
8488;SDS011;4281;45.772;12.852;2023-06-22T10:54:23;10.73;;;9.83;;
8488;SDS011;4281;45.772;12.852;2023-06-22T10:56:51;10.60;;;9.70;;
8488;SDS011;4281;45.772;12.852;2023-06-22T10:59:19;11.23;;;10.33;;
8488;SDS011;4281;45.772;12.852;2023-06-22T11:01:47;10.93;;;10.03;;
8488;SDS011;4281;45.772;12.852;2023-06-22T11:04:15;11.83;;;10.80;;
8488;SDS011;4281;45.772;12.852;2023-06-22T11:06:45;11.17;;;10.27;;
8488;SDS011;4281;45.772;12.852;2023-06-22T11:09:13;12.10;;;11.00;;
8488;SDS011;4281;45.772;12.852;2023-06-22T11:11:48;11.07;;;10.17;;
8488;SDS011;4281;45.772;12.852;2023-06-22T11:14:17;10.50;;;9.70;;
8488;SDS011;4281;45.772;12.852;2023-06-22T11:16:45;10.43;;;9.63;;
8488;SDS011;4281;45.772;12.852;2023-06-22T11:19:13;10.60;;;9.70;;
8488;SDS011;4281;45.772;12.852;2023-06-22T11:21:41;11.10;;;10.23;;
8488;SDS011;4281;45.772;12.852;2023-06-22T11:24:11;11.13;;;10.13;;
8488;SDS011;4281;45.772;12.852;2023-06-22T11:26:39;10.73;;;9.90;;
8488;SDS011;4281;45.772;12.852;2023-06-22T11:29:07;11.07;;;9.97;;
8488;SDS011;4281;45.772;12.852;2023-06-22T11:31:44;10.83;;;9.87;;
8488;SDS011;4281;45.772;12.852;2023-06-22T11:34:12;9.63;;;8.70;;
8488;SDS011;4281;45.772;12.852;2023-06-22T11:36:40;9.70;;;8.90;;
8488;SDS011;4281;45.772;12.852;2023-06-22T11:39:08;9.47;;;8.43;;
8488;SDS011;4281;45.772;12.852;2023-06-22T11:41:38;10.37;;;8.50;;
8488;SDS011;4281;45.772;12.852;2023-06-22T11:44:06;10.20;;;9.20;;
8488;SDS011;4281;45.772;12.852;2023-06-22T11:46:34;9.90;;;9.10;;
8488;SDS011;4281;45.772;12.852;2023-06-22T11:49:04;10.53;;;9.10;;
8488;SDS011;4281;45.772;12.852;2023-06-22T11:51:32;9.37;;;8.67;;
8488;SDS011;4281;45.772;12.852;2023-06-22T11:54:00;9.37;;;8.63;;
8488;SDS011;4281;45.772;12.852;2023-06-22T11:56:28;9.20;;;8.40;;
8488;SDS011;4281;45.772;12.852;2023-06-22T11:58:58;9.00;;;8.10;;
8488;SDS011;4281;45.772;12.852;2023-06-22T12:01:25;8.97;;;8.17;;
8488;SDS011;4281;45.772;12.852;2023-06-22T12:03:53;9.40;;;8.60;;
8488;SDS011;4281;45.772;12.852;2023-06-22T12:06:22;9.90;;;9.00;;
8488;SDS011;4281;45.772;12.852;2023-06-22T12:08:50;9.70;;;8.90;;
8488;SDS011;4281;45.772;12.852;2023-06-22T12:11:18;9.07;;;8.00;;
8488;SDS011;4281;45.772;12.852;2023-06-22T12:13:46;9.30;;;8.50;;
8488;SDS011;4281;45.772;12.852;2023-06-22T12:16:15;8.83;;;8.13;;
8488;SDS011;4281;45.772;12.852;2023-06-22T12:18:43;9.23;;;8.40;;
8488;SDS011;4281;45.772;12.852;2023-06-22T12:21:11;8.70;;;7.80;;
8488;SDS011;4281;45.772;12.852;2023-06-22T12:23:39;8.93;;;8.10;;
8488;SDS011;4281;45.772;12.852;2023-06-22T12:26:07;8.53;;;7.63;;
8488;SDS011;4281;45.772;12.852;2023-06-22T12:28:35;8.93;;;8.13;;
8488;SDS011;4281;45.772;12.852;2023-06-22T12:31:03;9.03;;;8.20;;
8488;SDS011;4281;45.772;12.852;2023-06-22T12:33:32;9.37;;;8.67;;
8488;SDS011;4281;45.772;12.852;2023-06-22T12:36:00;8.77;;;7.97;;
8488;SDS011;4281;45.772;12.852;2023-06-22T12:38:28;9.10;;;8.37;;
8488;SDS011;4281;45.772;12.852;2023-06-22T12:40:56;8.90;;;8.00;;
8488;SDS011;4281;45.772;12.852;2023-06-22T12:43:24;8.80;;;8.00;;
8488;SDS011;4281;45.772;12.852;2023-06-22T12:45:52;8.10;;;7.37;;
8488;SDS011;4281;45.772;12.852;2023-06-22T12:48:21;8.67;;;7.87;;
8488;SDS011;4281;45.772;12.852;2023-06-22T12:50:50;8.50;;;7.57;;
8488;SDS011;4281;45.772;12.852;2023-06-22T12:53:20;8.80;;;8.10;;
8488;SDS011;4281;45.772;12.852;2023-06-22T12:55:49;8.53;;;7.67;;
8488;SDS011;4281;45.772;12.852;2023-06-22T12:58:20;7.97;;;7.27;;
8488;SDS011;4281;45.772;12.852;2023-06-22T13:00:48;8.53;;;7.73;;
8488;SDS011;4281;45.772;12.852;2023-06-22T13:03:16;8.43;;;7.73;;
8488;SDS011;4281;45.772;12.852;2023-06-22T13:05:44;8.73;;;7.93;;
8488;SDS011;4281;45.772;12.852;2023-06-22T13:08:13;8.07;;;7.33;;
8488;SDS011;4281;45.772;12.852;2023-06-22T13:10:41;8.10;;;7.40;;
8488;SDS011;4281;45.772;12.852;2023-06-22T13:13:09;7.87;;;7.17;;
8488;SDS011;4281;45.772;12.852;2023-06-22T13:15:37;7.87;;;7.27;;
8488;SDS011;4281;45.772;12.852;2023-06-22T13:18:05;8.03;;;7.33;;
8488;SDS011;4281;45.772;12.852;2023-06-22T13:20:33;7.37;;;6.70;;
8488;SDS011;4281;45.772;12.852;2023-06-22T13:23:01;7.70;;;6.80;;
8488;SDS011;4281;45.772;12.852;2023-06-22T13:25:30;7.40;;;6.80;;
8488;SDS011;4281;45.772;12.852;2023-06-22T13:27:58;8.10;;;7.20;;
8488;SDS011;4281;45.772;12.852;2023-06-22T13:30:28;7.57;;;6.83;;
8488;SDS011;4281;45.772;12.852;2023-06-22T13:32:57;9.50;;;6.63;;
8488;SDS011;4281;45.772;12.852;2023-06-22T13:35:25;7.40;;;6.80;;
8488;SDS011;4281;45.772;12.852;2023-06-22T13:37:54;8.00;;;7.20;;
8488;SDS011;4281;45.772;12.852;2023-06-22T13:40:22;8.27;;;7.47;;
8488;SDS011;4281;45.772;12.852;2023-06-22T13:42:51;8.70;;;7.23;;
8488;SDS011;4281;45.772;12.852;2023-06-22T13:45:21;7.90;;;7.10;;
8488;SDS011;4281;45.772;12.852;2023-06-22T13:47:49;7.30;;;6.70;;
8488;SDS011;4281;45.772;12.852;2023-06-22T13:50:17;8.10;;;6.87;;
8488;SDS011;4281;45.772;12.852;2023-06-22T13:52:45;7.80;;;7.00;;
8488;SDS011;4281;45.772;12.852;2023-06-22T13:55:13;7.83;;;7.07;;
8488;SDS011;4281;45.772;12.852;2023-06-22T13:57:42;7.43;;;6.77;;
8488;SDS011;4281;45.772;12.852;2023-06-22T14:00:12;8.23;;;6.83;;
8488;SDS011;4281;45.772;12.852;2023-06-22T14:02:40;7.40;;;6.80;;
8488;SDS011;4281;45.772;12.852;2023-06-22T14:05:09;8.40;;;7.53;;
8488;SDS011;4281;45.772;12.852;2023-06-22T14:07:40;7.70;;;7.00;;
8488;SDS011;4281;45.772;12.852;2023-06-22T14:10:08;8.03;;;7.27;;
8488;SDS011;4281;45.772;12.852;2023-06-22T14:12:36;7.63;;;6.93;;
8488;SDS011;4281;45.772;12.852;2023-06-22T14:15:04;7.50;;;6.80;;
8488;SDS011;4281;45.772;12.852;2023-06-22T14:17:34;7.03;;;6.50;;
8488;SDS011;4281;45.772;12.852;2023-06-22T14:20:02;7.77;;;7.07;;
8488;SDS011;4281;45.772;12.852;2023-06-22T14:22:31;7.20;;;6.50;;
8488;SDS011;4281;45.772;12.852;2023-06-22T14:25:01;8.67;;;6.60;;
8488;SDS011;4281;45.772;12.852;2023-06-22T14:27:29;7.17;;;6.57;;
8488;SDS011;4281;45.772;12.852;2023-06-22T14:30:00;7.30;;;6.67;;
8488;SDS011;4281;45.772;12.852;2023-06-22T14:32:32;7.10;;;6.50;;
8488;SDS011;4281;45.772;12.852;2023-06-22T14:35:01;8.57;;;6.63;;
8488;SDS011;4281;45.772;12.852;2023-06-22T14:37:31;7.27;;;6.57;;
8488;SDS011;4281;45.772;12.852;2023-06-22T14:39:59;7.10;;;6.43;;
8488;SDS011;4281;45.772;12.852;2023-06-22T14:42:27;7.00;;;6.33;;
8488;SDS011;4281;45.772;12.852;2023-06-22T14:44:56;7.07;;;6.43;;
8488;SDS011;4281;45.772;12.852;2023-06-22T14:47:24;7.53;;;6.53;;
8488;SDS011;4281;45.772;12.852;2023-06-22T14:52:30;7.77;;;6.60;;